sensor_id;sensor_type;location;lat;lon;timestamp;P1;durP1;ratioP1;P2;durP2;ratioP2
10134;SDS011;5107;48.850;8.924;2023-10-09T00:00:57;15.73;;;5.33;;
10134;SDS011;5107;48.850;8.924;2023-10-09T00:03:41;15.67;;;5.17;;
10134;SDS011;5107;48.850;8.924;2023-10-09T00:06:08;17.80;;;5.67;;
10134;SDS011;5107;48.850;8.924;2023-10-09T00:08:37;17.80;;;5.30;;
10134;SDS011;5107;48.850;8.924;2023-10-09T00:11:04;17.53;;;6.33;;
10134;SDS011;5107;48.850;8.924;2023-10-09T00:13:40;23.47;;;5.70;;
10134;SDS011;5107;48.850;8.924;2023-10-09T00:16:14;16.83;;;5.50;;
10134;SDS011;5107;48.850;8.924;2023-10-09T00:18:48;24.40;;;5.63;;
10134;SDS011;5107;48.850;8.924;2023-10-09T00:21:17;14.83;;;4.90;;
10134;SDS011;5107;48.850;8.924;2023-10-09T00:23:45;21.53;;;5.53;;
10134;SDS011;5107;48.850;8.924;2023-10-09T00:26:20;18.37;;;5.63;;
10134;SDS011;5107;48.850;8.924;2023-10-09T00:28:46;18.00;;;5.70;;
10134;SDS011;5107;48.850;8.924;2023-10-09T00:31:15;18.43;;;4.80;;
10134;SDS011;5107;48.850;8.924;2023-10-09T00:33:44;18.93;;;5.40;;
10134;SDS011;5107;48.850;8.924;2023-10-09T00:36:10;20.63;;;5.87;;
10134;SDS011;5107;48.850;8.924;2023-10-09T00:38:36;18.83;;;5.20;;
10134;SDS011;5107;48.850;8.924;2023-10-09T00:41:10;22.47;;;6.10;;
10134;SDS011;5107;48.850;8.924;2023-10-09T00:43:36;17.17;;;5.50;;
10134;SDS011;5107;48.850;8.924;2023-10-09T00:46:02;15.93;;;5.37;;
10134;SDS011;5107;48.850;8.924;2023-10-09T00:48:55;22.50;;;6.13;;
10134;SDS011;5107;48.850;8.924;2023-10-09T00:51:22;20.93;;;5.50;;
10134;SDS011;5107;48.850;8.924;2023-10-09T00:53:50;19.67;;;5.43;;
10134;SDS011;5107;48.850;8.924;2023-10-09T00:56:20;18.83;;;5.83;;
10134;SDS011;5107;48.850;8.924;2023-10-09T00:58:50;14.20;;;5.47;;
10134;SDS011;5107;48.850;8.924;2023-10-09T01:01:24;14.67;;;5.60;;
10134;SDS011;5107;48.850;8.924;2023-10-09T01:03:53;18.43;;;5.53;;
10134;SDS011;5107;48.850;8.924;2023-10-09T01:06:19;14.70;;;4.87;;
10134;SDS011;5107;48.850;8.924;2023-10-09T01:08:52;18.10;;;5.40;;
10134;SDS011;5107;48.850;8.924;2023-10-09T01:11:33;18.87;;;5.60;;
10134;SDS011;5107;48.850;8.924;2023-10-09T01:13:59;14.00;;;5.30;;
10134;SDS011;5107;48.850;8.924;2023-10-09T01:16:45;19.67;;;5.43;;
10134;SDS011;5107;48.850;8.924;2023-10-09T01:19:12;17.07;;;4.83;;
10134;SDS011;5107;48.850;8.924;2023-10-09T01:21:50;18.73;;;5.40;;
10134;SDS011;5107;48.850;8.924;2023-10-09T01:24:16;17.40;;;5.70;;
10134;SDS011;5107;48.850;8.924;2023-10-09T01:26:42;22.40;;;5.70;;
10134;SDS011;5107;48.850;8.924;2023-10-09T01:29:20;22.87;;;5.97;;
10134;SDS011;5107;48.850;8.924;2023-10-09T01:31:47;16.03;;;5.50;;
10134;SDS011;5107;48.850;8.924;2023-10-09T01:34:23;20.70;;;6.00;;
10134;SDS011;5107;48.850;8.924;2023-10-09T01:36:52;21.53;;;5.50;;
10134;SDS011;5107;48.850;8.924;2023-10-09T01:39:25;15.83;;;5.07;;
10134;SDS011;5107;48.850;8.924;2023-10-09T01:41:56;18.50;;;5.13;;
10134;SDS011;5107;48.850;8.924;2023-10-09T01:44:27;19.33;;;5.37;;
10134;SDS011;5107;48.850;8.924;2023-10-09T01:46:59;21.13;;;5.37;;
10134;SDS011;5107;48.850;8.924;2023-10-09T01:49:25;19.07;;;5.10;;
10134;SDS011;5107;48.850;8.924;2023-10-09T01:51:57;21.87;;;5.63;;
10134;SDS011;5107;48.850;8.924;2023-10-09T01:54:29;14.33;;;5.87;;
10134;SDS011;5107;48.850;8.924;2023-10-09T01:57:06;21.27;;;5.90;;
10134;SDS011;5107;48.850;8.924;2023-10-09T01:59:38;17.60;;;4.83;;
10134;SDS011;5107;48.850;8.924;2023-10-09T02:02:11;15.70;;;5.10;;
10134;SDS011;5107;48.850;8.924;2023-10-09T02:04:58;18.17;;;5.03;;
10134;SDS011;5107;48.850;8.924;2023-10-09T02:07:50;17.70;;;4.87;;
10134;SDS011;5107;48.850;8.924;2023-10-09T02:10:19;20.07;;;5.57;;
10134;SDS011;5107;48.850;8.924;2023-10-09T02:12:56;14.27;;;4.60;;
10134;SDS011;5107;48.850;8.924;2023-10-09T02:15:31;18.20;;;5.10;;
10134;SDS011;5107;48.850;8.924;2023-10-09T02:18:10;14.90;;;4.83;;
10134;SDS011;5107;48.850;8.924;2023-10-09T02:20:48;18.70;;;4.90;;
10134;SDS011;5107;48.850;8.924;2023-10-09T02:23:30;17.80;;;5.37;;
10134;SDS011;5107;48.850;8.924;2023-10-09T02:26:12;14.37;;;4.90;;
10134;SDS011;5107;48.850;8.924;2023-10-09T02:28:50;19.67;;;4.67;;
10134;SDS011;5107;48.850;8.924;2023-10-09T02:31:24;19.27;;;5.30;;
10134;SDS011;5107;48.850;8.924;2023-10-09T02:33:51;15.90;;;4.77;;
10134;SDS011;5107;48.850;8.924;2023-10-09T02:36:19;21.07;;;5.37;;
10134;SDS011;5107;48.850;8.924;2023-10-09T02:38:45;16.83;;;4.60;;
10134;SDS011;5107;48.850;8.924;2023-10-09T02:41:13;18.13;;;5.60;;
10134;SDS011;5107;48.850;8.924;2023-10-09T02:43:40;20.60;;;4.63;;
10134;SDS011;5107;48.850;8.924;2023-10-09T02:46:20;14.63;;;5.20;;
10134;SDS011;5107;48.850;8.924;2023-10-09T02:48:54;18.97;;;5.53;;
10134;SDS011;5107;48.850;8.924;2023-10-09T02:51:21;16.77;;;4.87;;
10134;SDS011;5107;48.850;8.924;2023-10-09T02:53:54;14.03;;;4.57;;
10134;SDS011;5107;48.850;8.924;2023-10-09T02:56:27;20.10;;;5.30;;
10134;SDS011;5107;48.850;8.924;2023-10-09T02:59:02;17.03;;;5.00;;
10134;SDS011;5107;48.850;8.924;2023-10-09T03:01:32;14.33;;;4.87;;
10134;SDS011;5107;48.850;8.924;2023-10-09T03:04:05;19.43;;;4.73;;
10134;SDS011;5107;48.850;8.924;2023-10-09T03:06:36;19.43;;;4.73;;
10134;SDS011;5107;48.850;8.924;2023-10-09T03:09:08;21.33;;;5.30;;
10134;SDS011;5107;48.850;8.924;2023-10-09T03:11:46;15.87;;;4.67;;
10134;SDS011;5107;48.850;8.924;2023-10-09T03:14:18;13.50;;;4.67;;
10134;SDS011;5107;48.850;8.924;2023-10-09T03:16:45;17.07;;;5.10;;
10134;SDS011;5107;48.850;8.924;2023-10-09T03:19:13;18.20;;;4.97;;
10134;SDS011;5107;48.850;8.924;2023-10-09T03:21:38;14.57;;;4.37;;
10134;SDS011;5107;48.850;8.924;2023-10-09T03:24:04;14.67;;;5.40;;
10134;SDS011;5107;48.850;8.924;2023-10-09T03:26:30;14.10;;;4.97;;
10134;SDS011;5107;48.850;8.924;2023-10-09T03:28:56;20.83;;;4.77;;
10134;SDS011;5107;48.850;8.924;2023-10-09T03:31:23;16.17;;;4.20;;
10134;SDS011;5107;48.850;8.924;2023-10-09T03:33:48;15.50;;;5.00;;
10134;SDS011;5107;48.850;8.924;2023-10-09T03:36:13;16.87;;;5.00;;
10134;SDS011;5107;48.850;8.924;2023-10-09T03:38:41;16.27;;;4.70;;
10134;SDS011;5107;48.850;8.924;2023-10-09T03:41:07;18.03;;;4.87;;
10134;SDS011;5107;48.850;8.924;2023-10-09T03:43:37;14.23;;;4.50;;
10134;SDS011;5107;48.850;8.924;2023-10-09T03:46:08;17.80;;;5.13;;
10134;SDS011;5107;48.850;8.924;2023-10-09T03:48:49;19.90;;;5.07;;
10134;SDS011;5107;48.850;8.924;2023-10-09T03:51:15;17.90;;;7.60;;
10134;SDS011;5107;48.850;8.924;2023-10-09T03:53:47;19.87;;;8.03;;
10134;SDS011;5107;48.850;8.924;2023-10-09T03:56:13;29.57;;;10.10;;
10134;SDS011;5107;48.850;8.924;2023-10-09T03:58:40;21.07;;;8.23;;
10134;SDS011;5107;48.850;8.924;2023-10-09T04:01:11;32.43;;;17.07;;
10134;SDS011;5107;48.850;8.924;2023-10-09T04:03:47;22.27;;;6.00;;
10134;SDS011;5107;48.850;8.924;2023-10-09T04:06:12;20.73;;;4.80;;
10134;SDS011;5107;48.850;8.924;2023-10-09T04:08:38;18.33;;;4.93;;
10134;SDS011;5107;48.850;8.924;2023-10-09T04:11:05;18.03;;;5.27;;
10134;SDS011;5107;48.850;8.924;2023-10-09T04:13:40;18.67;;;4.63;;
10134;SDS011;5107;48.850;8.924;2023-10-09T04:16:06;15.93;;;4.50;;
10134;SDS011;5107;48.850;8.924;2023-10-09T04:18:51;16.87;;;5.60;;
10134;SDS011;5107;48.850;8.924;2023-10-09T04:21:17;14.83;;;4.90;;
10134;SDS011;5107;48.850;8.924;2023-10-09T04:23:53;22.73;;;4.67;;
10134;SDS011;5107;48.850;8.924;2023-10-09T04:26:36;19.60;;;4.97;;
10134;SDS011;5107;48.850;8.924;2023-10-09T04:29:09;13.87;;;4.40;;
10134;SDS011;5107;48.850;8.924;2023-10-09T04:31:35;19.10;;;5.37;;
10134;SDS011;5107;48.850;8.924;2023-10-09T04:34:05;15.90;;;4.70;;
10134;SDS011;5107;48.850;8.924;2023-10-09T04:36:50;13.83;;;5.80;;
10134;SDS011;5107;48.850;8.924;2023-10-09T04:39:19;14.30;;;4.67;;
10134;SDS011;5107;48.850;8.924;2023-10-09T04:41:56;20.63;;;4.60;;
10134;SDS011;5107;48.850;8.924;2023-10-09T04:44:41;14.87;;;4.43;;
10134;SDS011;5107;48.850;8.924;2023-10-09T04:47:27;20.47;;;4.40;;
10134;SDS011;5107;48.850;8.924;2023-10-09T04:50:09;10.63;;;4.40;;
10134;SDS011;5107;48.850;8.924;2023-10-09T04:52:44;11.30;;;4.30;;
10134;SDS011;5107;48.850;8.924;2023-10-09T04:55:10;12.40;;;4.30;;
10134;SDS011;5107;48.850;8.924;2023-10-09T04:57:36;17.73;;;4.23;;
10134;SDS011;5107;48.850;8.924;2023-10-09T05:00:25;17.67;;;5.10;;
10134;SDS011;5107;48.850;8.924;2023-10-09T05:02:50;17.33;;;4.77;;
10134;SDS011;5107;48.850;8.924;2023-10-09T05:05:29;12.87;;;4.13;;
10134;SDS011;5107;48.850;8.924;2023-10-09T05:08:21;13.60;;;4.17;;
10134;SDS011;5107;48.850;8.924;2023-10-09T05:10:46;28.80;;;5.80;;
10134;SDS011;5107;48.850;8.924;2023-10-09T05:13:36;12.70;;;4.37;;
10134;SDS011;5107;48.850;8.924;2023-10-09T05:16:12;15.00;;;4.43;;
10134;SDS011;5107;48.850;8.924;2023-10-09T05:18:44;19.13;;;5.23;;
10134;SDS011;5107;48.850;8.924;2023-10-09T05:21:21;17.87;;;4.70;;
10134;SDS011;5107;48.850;8.924;2023-10-09T05:23:55;15.57;;;4.67;;
10134;SDS011;5107;48.850;8.924;2023-10-09T05:26:45;13.17;;;4.67;;
10134;SDS011;5107;48.850;8.924;2023-10-09T05:29:12;17.37;;;4.77;;
10134;SDS011;5107;48.850;8.924;2023-10-09T05:31:47;17.20;;;4.90;;
10134;SDS011;5107;48.850;8.924;2023-10-09T05:34:25;17.17;;;4.30;;
10134;SDS011;5107;48.850;8.924;2023-10-09T05:37:07;22.47;;;4.83;;
10134;SDS011;5107;48.850;8.924;2023-10-09T05:39:43;17.83;;;4.90;;
10134;SDS011;5107;48.850;8.924;2023-10-09T05:42:23;16.67;;;4.80;;
10134;SDS011;5107;48.850;8.924;2023-10-09T05:44:53;15.07;;;4.90;;
10134;SDS011;5107;48.850;8.924;2023-10-09T05:47:54;17.60;;;4.87;;
10134;SDS011;5107;48.850;8.924;2023-10-09T05:50:23;18.93;;;4.63;;
10134;SDS011;5107;48.850;8.924;2023-10-09T05:52:50;19.20;;;4.53;;
10134;SDS011;5107;48.850;8.924;2023-10-09T05:55:25;17.83;;;4.73;;
10134;SDS011;5107;48.850;8.924;2023-10-09T05:58:09;15.63;;;4.87;;
10134;SDS011;5107;48.850;8.924;2023-10-09T06:00:53;17.90;;;4.97;;
10134;SDS011;5107;48.850;8.924;2023-10-09T06:03:30;17.37;;;5.20;;
10134;SDS011;5107;48.850;8.924;2023-10-09T06:06:14;13.17;;;4.50;;
10134;SDS011;5107;48.850;8.924;2023-10-09T06:09:01;16.87;;;4.63;;
10134;SDS011;5107;48.850;8.924;2023-10-09T06:11:53;24.10;;;5.03;;
10134;SDS011;5107;48.850;8.924;2023-10-09T06:14:19;22.53;;;5.03;;
10134;SDS011;5107;48.850;8.924;2023-10-09T06:16:48;19.27;;;4.37;;
10134;SDS011;5107;48.850;8.924;2023-10-09T06:19:22;22.03;;;5.13;;
10134;SDS011;5107;48.850;8.924;2023-10-09T06:21:55;14.37;;;4.53;;
10134;SDS011;5107;48.850;8.924;2023-10-09T06:24:40;15.20;;;4.63;;
10134;SDS011;5107;48.850;8.924;2023-10-09T06:27:07;13.13;;;4.67;;
10134;SDS011;5107;48.850;8.924;2023-10-09T06:29:36;12.20;;;3.97;;
10134;SDS011;5107;48.850;8.924;2023-10-09T06:32:16;15.03;;;4.50;;
10134;SDS011;5107;48.850;8.924;2023-10-09T06:37:46;10.03;;;3.90;;
10134;SDS011;5107;48.850;8.924;2023-10-09T06:40:30;20.60;;;4.63;;
10134;SDS011;5107;48.850;8.924;2023-10-09T06:43:16;15.33;;;4.47;;
10134;SDS011;5107;48.850;8.924;2023-10-09T06:45:41;23.67;;;6.00;;
10134;SDS011;5107;48.850;8.924;2023-10-09T06:48:10;18.70;;;4.33;;
10134;SDS011;5107;48.850;8.924;2023-10-09T06:50:55;17.07;;;4.67;;
10134;SDS011;5107;48.850;8.924;2023-10-09T06:53:20;20.27;;;5.17;;
10134;SDS011;5107;48.850;8.924;2023-10-09T06:55:50;18.00;;;5.03;;
10134;SDS011;5107;48.850;8.924;2023-10-09T06:58:16;20.17;;;5.50;;
10134;SDS011;5107;48.850;8.924;2023-10-09T07:00:54;14.83;;;4.90;;
10134;SDS011;5107;48.850;8.924;2023-10-09T07:03:23;23.10;;;5.00;;
10134;SDS011;5107;48.850;8.924;2023-10-09T07:06:07;12.77;;;4.40;;
10134;SDS011;5107;48.850;8.924;2023-10-09T07:08:49;20.87;;;5.00;;
10134;SDS011;5107;48.850;8.924;2023-10-09T07:11:33;15.13;;;4.33;;
10134;SDS011;5107;48.850;8.924;2023-10-09T07:14:12;18.30;;;4.70;;
10134;SDS011;5107;48.850;8.924;2023-10-09T07:16:56;19.60;;;4.90;;
10134;SDS011;5107;48.850;8.924;2023-10-09T07:19:28;14.30;;;4.43;;
10134;SDS011;5107;48.850;8.924;2023-10-09T07:22:07;16.53;;;4.63;;
10134;SDS011;5107;48.850;8.924;2023-10-09T07:24:45;14.43;;;4.77;;
10134;SDS011;5107;48.850;8.924;2023-10-09T07:27:23;18.63;;;4.33;;
10134;SDS011;5107;48.850;8.924;2023-10-09T07:30:08;19.70;;;5.27;;
10134;SDS011;5107;48.850;8.924;2023-10-09T07:32:53;18.07;;;4.63;;
10134;SDS011;5107;48.850;8.924;2023-10-09T07:35:22;14.03;;;4.47;;
10134;SDS011;5107;48.850;8.924;2023-10-09T07:38:06;17.10;;;4.07;;
10134;SDS011;5107;48.850;8.924;2023-10-09T07:40:35;17.07;;;4.50;;
10134;SDS011;5107;48.850;8.924;2023-10-09T07:43:20;15.57;;;4.60;;
10134;SDS011;5107;48.850;8.924;2023-10-09T07:45:51;15.70;;;4.03;;
10134;SDS011;5107;48.850;8.924;2023-10-09T07:48:39;18.47;;;4.97;;
10134;SDS011;5107;48.850;8.924;2023-10-09T07:51:13;24.37;;;5.03;;
10134;SDS011;5107;48.850;8.924;2023-10-09T07:53:39;20.13;;;4.73;;
10134;SDS011;5107;48.850;8.924;2023-10-09T07:56:13;21.97;;;5.47;;
10134;SDS011;5107;48.850;8.924;2023-10-09T07:58:46;13.87;;;4.20;;
10134;SDS011;5107;48.850;8.924;2023-10-09T08:01:15;15.77;;;4.60;;
10134;SDS011;5107;48.850;8.924;2023-10-09T08:03:42;21.27;;;5.37;;
10134;SDS011;5107;48.850;8.924;2023-10-09T08:06:11;15.20;;;4.13;;
10134;SDS011;5107;48.850;8.924;2023-10-09T08:08:55;16.10;;;4.30;;
10134;SDS011;5107;48.850;8.924;2023-10-09T08:11:40;15.70;;;4.13;;
10134;SDS011;5107;48.850;8.924;2023-10-09T08:14:38;20.83;;;5.03;;
10134;SDS011;5107;48.850;8.924;2023-10-09T08:17:13;22.40;;;4.57;;
10134;SDS011;5107;48.850;8.924;2023-10-09T08:19:41;28.60;;;5.27;;
10134;SDS011;5107;48.850;8.924;2023-10-09T08:22:20;23.00;;;5.37;;
10134;SDS011;5107;48.850;8.924;2023-10-09T08:24:49;19.73;;;5.00;;
10134;SDS011;5107;48.850;8.924;2023-10-09T08:27:21;19.37;;;4.50;;
10134;SDS011;5107;48.850;8.924;2023-10-09T08:30:00;17.60;;;4.07;;
10134;SDS011;5107;48.850;8.924;2023-10-09T08:32:48;14.93;;;4.40;;
10134;SDS011;5107;48.850;8.924;2023-10-09T08:35:35;20.23;;;4.30;;
10134;SDS011;5107;48.850;8.924;2023-10-09T08:38:12;14.53;;;4.17;;
10134;SDS011;5107;48.850;8.924;2023-10-09T08:40:39;23.10;;;4.60;;
10134;SDS011;5107;48.850;8.924;2023-10-09T08:45:37;20.50;;;3.60;;
10134;SDS011;5107;48.850;8.924;2023-10-09T08:48:04;19.80;;;4.27;;
10134;SDS011;5107;48.850;8.924;2023-10-09T08:50:32;17.95;;;4.57;;
10134;SDS011;5107;48.850;8.924;2023-10-09T08:52:59;14.23;;;4.10;;
10134;SDS011;5107;48.850;8.924;2023-10-09T08:55:26;22.90;;;4.30;;
10134;SDS011;5107;48.850;8.924;2023-10-09T08:57:51;23.65;;;4.22;;
10134;SDS011;5107;48.850;8.924;2023-10-09T09:00:17;15.07;;;3.88;;
10134;SDS011;5107;48.850;8.924;2023-10-09T09:02:52;17.58;;;4.80;;
10134;SDS011;5107;48.850;8.924;2023-10-09T09:05:18;19.38;;;4.82;;
10134;SDS011;5107;48.850;8.924;2023-10-09T09:07:45;20.93;;;5.13;;
10134;SDS011;5107;48.850;8.924;2023-10-09T09:10:11;16.27;;;4.87;;
10134;SDS011;5107;48.850;8.924;2023-10-09T09:12:45;19.13;;;4.50;;
10134;SDS011;5107;48.850;8.924;2023-10-09T09:15:14;20.00;;;4.40;;
10134;SDS011;5107;48.850;8.924;2023-10-09T09:17:45;17.13;;;4.20;;
10134;SDS011;5107;48.850;8.924;2023-10-09T09:20:24;18.35;;;4.85;;
10134;SDS011;5107;48.850;8.924;2023-10-09T09:22:58;22.60;;;5.13;;
10134;SDS011;5107;48.850;8.924;2023-10-09T09:25:24;24.08;;;4.78;;
10134;SDS011;5107;48.850;8.924;2023-10-09T09:27:50;16.13;;;4.07;;
10134;SDS011;5107;48.850;8.924;2023-10-09T09:30:27;16.45;;;4.65;;
10134;SDS011;5107;48.850;8.924;2023-10-09T09:33:21;22.23;;;5.10;;
10134;SDS011;5107;48.850;8.924;2023-10-09T09:36:04;18.77;;;4.85;;
10134;SDS011;5107;48.850;8.924;2023-10-09T09:38:31;17.88;;;3.80;;
10134;SDS011;5107;48.850;8.924;2023-10-09T09:41:07;17.75;;;4.55;;
10134;SDS011;5107;48.850;8.924;2023-10-09T09:43:34;13.38;;;3.60;;
10134;SDS011;5107;48.850;8.924;2023-10-09T09:46:05;21.38;;;4.35;;
10134;SDS011;5107;48.850;8.924;2023-10-09T09:48:42;18.05;;;4.13;;
10134;SDS011;5107;48.850;8.924;2023-10-09T09:51:12;16.08;;;4.25;;
10134;SDS011;5107;48.850;8.924;2023-10-09T09:53:39;17.40;;;4.43;;
10134;SDS011;5107;48.850;8.924;2023-10-09T09:56:05;18.25;;;4.15;;
10134;SDS011;5107;48.850;8.924;2023-10-09T09:58:31;17.65;;;4.47;;
10134;SDS011;5107;48.850;8.924;2023-10-09T10:01:07;17.02;;;4.30;;
10134;SDS011;5107;48.850;8.924;2023-10-09T10:03:54;14.85;;;4.13;;
10134;SDS011;5107;48.850;8.924;2023-10-09T10:06:24;14.65;;;4.20;;
10134;SDS011;5107;48.850;8.924;2023-10-09T10:08:51;13.35;;;4.13;;
10134;SDS011;5107;48.850;8.924;2023-10-09T10:14:09;19.52;;;4.22;;
10134;SDS011;5107;48.850;8.924;2023-10-09T10:16:59;13.73;;;3.75;;
10134;SDS011;5107;48.850;8.924;2023-10-09T10:22:41;15.73;;;3.80;;
10134;SDS011;5107;48.850;8.924;2023-10-09T10:31:04;14.25;;;4.10;;
10134;SDS011;5107;48.850;8.924;2023-10-09T10:36:19;8.70;;;3.65;;
10134;SDS011;5107;48.850;8.924;2023-10-09T10:38:58;14.23;;;4.07;;
10134;SDS011;5107;48.850;8.924;2023-10-09T10:41:34;12.13;;;3.42;;
10134;SDS011;5107;48.850;8.924;2023-10-09T10:44:31;15.32;;;4.55;;
10134;SDS011;5107;48.850;8.924;2023-10-09T10:47:08;16.98;;;4.68;;
10134;SDS011;5107;48.850;8.924;2023-10-09T10:49:49;13.20;;;4.05;;
10134;SDS011;5107;48.850;8.924;2023-10-09T10:52:22;9.95;;;3.55;;
10134;SDS011;5107;48.850;8.924;2023-10-09T10:54:47;17.40;;;4.15;;
10134;SDS011;5107;48.850;8.924;2023-10-09T10:57:35;11.02;;;3.88;;
10134;SDS011;5107;48.850;8.924;2023-10-09T11:00:21;11.38;;;3.90;;
10134;SDS011;5107;48.850;8.924;2023-10-09T11:03:05;14.18;;;3.78;;
10134;SDS011;5107;48.850;8.924;2023-10-09T11:05:39;11.95;;;3.67;;
10134;SDS011;5107;48.850;8.924;2023-10-09T11:08:09;9.50;;;3.97;;
10134;SDS011;5107;48.850;8.924;2023-10-09T11:10:35;13.73;;;3.90;;
10134;SDS011;5107;48.850;8.924;2023-10-09T11:13:01;10.38;;;3.92;;
10134;SDS011;5107;48.850;8.924;2023-10-09T11:15:36;16.48;;;4.40;;
10134;SDS011;5107;48.850;8.924;2023-10-09T11:18:12;8.95;;;3.72;;
10134;SDS011;5107;48.850;8.924;2023-10-09T11:21:06;11.63;;;3.85;;
10134;SDS011;5107;48.850;8.924;2023-10-09T11:23:31;7.97;;;3.90;;
10134;SDS011;5107;48.850;8.924;2023-10-09T11:26:00;14.35;;;4.25;;
10134;SDS011;5107;48.850;8.924;2023-10-09T11:34:38;9.50;;;4.20;;
10134;SDS011;5107;48.850;8.924;2023-10-09T11:37:13;18.70;;;4.70;;
10134;SDS011;5107;48.850;8.924;2023-10-09T11:39:40;11.75;;;4.10;;
10134;SDS011;5107;48.850;8.924;2023-10-09T11:42:18;12.07;;;4.28;;
10134;SDS011;5107;48.850;8.924;2023-10-09T11:45:01;14.68;;;4.32;;
10134;SDS011;5107;48.850;8.924;2023-10-09T11:47:44;8.77;;;4.40;;
10134;SDS011;5107;48.850;8.924;2023-10-09T11:50:19;16.02;;;4.15;;
10134;SDS011;5107;48.850;8.924;2023-10-09T11:52:55;14.55;;;4.18;;
10134;SDS011;5107;48.850;8.924;2023-10-09T11:55:34;12.70;;;4.03;;
10134;SDS011;5107;48.850;8.924;2023-10-09T11:58:03;10.90;;;4.28;;
10134;SDS011;5107;48.850;8.924;2023-10-09T12:00:30;11.98;;;4.32;;
10134;SDS011;5107;48.850;8.924;2023-10-09T12:02:57;9.90;;;4.28;;
10134;SDS011;5107;48.850;8.924;2023-10-09T12:05:30;16.80;;;4.90;;
10134;SDS011;5107;48.850;8.924;2023-10-09T12:07:58;13.35;;;5.20;;
10134;SDS011;5107;48.850;8.924;2023-10-09T12:10:26;10.88;;;5.13;;
10134;SDS011;5107;48.850;8.924;2023-10-09T12:12:55;10.32;;;5.00;;
10134;SDS011;5107;48.850;8.924;2023-10-09T12:15:24;9.13;;;4.85;;
10134;SDS011;5107;48.850;8.924;2023-10-09T12:17:50;8.57;;;5.00;;
10134;SDS011;5107;48.850;8.924;2023-10-09T12:20:18;14.70;;;5.55;;
10134;SDS011;5107;48.850;8.924;2023-10-09T12:23:00;11.55;;;4.60;;
10134;SDS011;5107;48.850;8.924;2023-10-09T12:25:30;15.20;;;5.47;;
10134;SDS011;5107;48.850;8.924;2023-10-09T12:27:57;9.82;;;5.20;;
10134;SDS011;5107;48.850;8.924;2023-10-09T12:30:30;9.68;;;4.95;;
10134;SDS011;5107;48.850;8.924;2023-10-09T12:32:56;9.48;;;5.05;;
10134;SDS011;5107;48.850;8.924;2023-10-09T12:35:25;11.13;;;4.80;;
10134;SDS011;5107;48.850;8.924;2023-10-09T12:37:54;13.65;;;5.18;;
10134;SDS011;5107;48.850;8.924;2023-10-09T12:40:22;10.80;;;5.22;;
10134;SDS011;5107;48.850;8.924;2023-10-09T12:42:54;15.25;;;5.80;;
10134;SDS011;5107;48.850;8.924;2023-10-09T12:45:23;16.23;;;6.10;;
10134;SDS011;5107;48.850;8.924;2023-10-09T12:47:57;16.23;;;6.68;;
10134;SDS011;5107;48.850;8.924;2023-10-09T12:50:31;13.57;;;5.38;;
10134;SDS011;5107;48.850;8.924;2023-10-09T12:52:59;14.02;;;6.25;;
10134;SDS011;5107;48.850;8.924;2023-10-09T12:55:30;13.07;;;5.95;;
10134;SDS011;5107;48.850;8.924;2023-10-09T12:57:59;18.48;;;6.60;;
10134;SDS011;5107;48.850;8.924;2023-10-09T13:00:27;12.25;;;5.90;;
10134;SDS011;5107;48.850;8.924;2023-10-09T13:02:52;14.90;;;5.90;;
10134;SDS011;5107;48.850;8.924;2023-10-09T13:05:17;13.52;;;6.20;;
10134;SDS011;5107;48.850;8.924;2023-10-09T13:07:52;9.77;;;5.80;;
10134;SDS011;5107;48.850;8.924;2023-10-09T13:10:18;15.20;;;6.40;;
10134;SDS011;5107;48.850;8.924;2023-10-09T13:12:44;12.98;;;6.10;;
10134;SDS011;5107;48.850;8.924;2023-10-09T13:15:10;18.35;;;6.57;;
10134;SDS011;5107;48.850;8.924;2023-10-09T13:17:36;17.40;;;6.45;;
10134;SDS011;5107;48.850;8.924;2023-10-09T13:20:02;16.38;;;6.88;;
10134;SDS011;5107;48.850;8.924;2023-10-09T13:22:41;15.65;;;6.57;;
10134;SDS011;5107;48.850;8.924;2023-10-09T13:25:10;15.38;;;7.18;;
10134;SDS011;5107;48.850;8.924;2023-10-09T13:27:44;13.73;;;6.65;;
10134;SDS011;5107;48.850;8.924;2023-10-09T13:30:18;11.25;;;7.13;;
10134;SDS011;5107;48.850;8.924;2023-10-09T13:32:49;14.55;;;6.68;;
10134;SDS011;5107;48.850;8.924;2023-10-09T13:35:16;11.13;;;6.75;;
10134;SDS011;5107;48.850;8.924;2023-10-09T13:37:45;12.02;;;6.93;;
10134;SDS011;5107;48.850;8.924;2023-10-09T13:40:19;12.52;;;6.80;;
10134;SDS011;5107;48.850;8.924;2023-10-09T13:42:54;12.48;;;7.05;;
10134;SDS011;5107;48.850;8.924;2023-10-09T13:45:24;14.02;;;6.82;;
10134;SDS011;5107;48.850;8.924;2023-10-09T13:47:56;13.25;;;7.57;;
10134;SDS011;5107;48.850;8.924;2023-10-09T13:50:25;13.93;;;7.40;;
10134;SDS011;5107;48.850;8.924;2023-10-09T13:53:07;14.88;;;7.90;;
10134;SDS011;5107;48.850;8.924;2023-10-09T13:55:38;16.92;;;7.78;;
10134;SDS011;5107;48.850;8.924;2023-10-09T13:58:08;14.20;;;7.55;;
10134;SDS011;5107;48.850;8.924;2023-10-09T14:00:39;11.70;;;7.43;;
10134;SDS011;5107;48.850;8.924;2023-10-09T14:03:07;11.93;;;7.07;;
10134;SDS011;5107;48.850;8.924;2023-10-09T14:05:38;13.60;;;7.00;;
10134;SDS011;5107;48.850;8.924;2023-10-09T14:08:09;12.20;;;7.28;;
10134;SDS011;5107;48.850;8.924;2023-10-09T14:10:37;10.32;;;6.93;;
10134;SDS011;5107;48.850;8.924;2023-10-09T14:13:03;13.10;;;7.07;;
10134;SDS011;5107;48.850;8.924;2023-10-09T14:15:37;9.90;;;6.72;;
10134;SDS011;5107;48.850;8.924;2023-10-09T14:18:06;13.32;;;7.30;;
10134;SDS011;5107;48.850;8.924;2023-10-09T14:20:36;15.25;;;7.50;;
10134;SDS011;5107;48.850;8.924;2023-10-09T14:23:02;10.48;;;6.85;;
10134;SDS011;5107;48.850;8.924;2023-10-09T14:25:32;13.05;;;7.57;;
10134;SDS011;5107;48.850;8.924;2023-10-09T14:28:09;16.17;;;7.15;;
10134;SDS011;5107;48.850;8.924;2023-10-09T14:30:37;15.95;;;7.05;;
10134;SDS011;5107;48.850;8.924;2023-10-09T14:33:12;15.85;;;7.68;;
10134;SDS011;5107;48.850;8.924;2023-10-09T14:35:39;10.73;;;6.63;;
10134;SDS011;5107;48.850;8.924;2023-10-09T14:38:05;19.00;;;7.18;;
10134;SDS011;5107;48.850;8.924;2023-10-09T14:40:45;14.45;;;6.38;;
10134;SDS011;5107;48.850;8.924;2023-10-09T14:43:11;12.35;;;6.50;;
10134;SDS011;5107;48.850;8.924;2023-10-09T14:45:47;10.95;;;6.50;;
10134;SDS011;5107;48.850;8.924;2023-10-09T14:48:16;14.38;;;6.78;;
10134;SDS011;5107;48.850;8.924;2023-10-09T14:50:50;13.07;;;6.72;;
10134;SDS011;5107;48.850;8.924;2023-10-09T14:53:19;11.98;;;6.07;;
10134;SDS011;5107;48.850;8.924;2023-10-09T14:55:45;15.05;;;6.47;;
10134;SDS011;5107;48.850;8.924;2023-10-09T14:58:12;14.95;;;6.70;;
10134;SDS011;5107;48.850;8.924;2023-10-09T15:00:38;12.73;;;6.28;;
10134;SDS011;5107;48.850;8.924;2023-10-09T15:03:10;13.05;;;6.70;;
10134;SDS011;5107;48.850;8.924;2023-10-09T15:05:39;11.13;;;6.05;;
10134;SDS011;5107;48.850;8.924;2023-10-09T15:08:06;14.48;;;6.15;;
10134;SDS011;5107;48.850;8.924;2023-10-09T15:10:35;17.88;;;6.68;;
10134;SDS011;5107;48.850;8.924;2023-10-09T15:13:03;11.13;;;6.68;;
10134;SDS011;5107;48.850;8.924;2023-10-09T15:15:29;12.00;;;6.57;;
10134;SDS011;5107;48.850;8.924;2023-10-09T15:17:56;14.57;;;6.53;;
10134;SDS011;5107;48.850;8.924;2023-10-09T15:20:21;14.82;;;6.70;;
10134;SDS011;5107;48.850;8.924;2023-10-09T15:22:46;17.38;;;6.97;;
10134;SDS011;5107;48.850;8.924;2023-10-09T15:25:12;13.38;;;6.20;;
10134;SDS011;5107;48.850;8.924;2023-10-09T15:27:40;18.42;;;6.85;;
10134;SDS011;5107;48.850;8.924;2023-10-09T15:30:06;14.88;;;6.78;;
10134;SDS011;5107;48.850;8.924;2023-10-09T15:32:33;15.00;;;6.05;;
10134;SDS011;5107;48.850;8.924;2023-10-09T15:35:00;16.75;;;6.75;;
10134;SDS011;5107;48.850;8.924;2023-10-09T15:37:27;15.07;;;6.03;;
10134;SDS011;5107;48.850;8.924;2023-10-09T15:39:52;15.80;;;6.72;;
10134;SDS011;5107;48.850;8.924;2023-10-09T15:42:18;14.05;;;6.10;;
10134;SDS011;5107;48.850;8.924;2023-10-09T15:44:43;13.45;;;6.03;;
10134;SDS011;5107;48.850;8.924;2023-10-09T15:47:13;14.77;;;6.18;;